createdAt,value
2022-09-15T00:00:03.722Z,13.80
2022-09-15T00:01:03.691Z,13.65
2022-09-15T00:02:03.839Z,13.75
2022-09-15T00:03:03.775Z,13.80
2022-09-15T00:04:03.657Z,13.76
2022-09-15T00:05:03.667Z,13.73
2022-09-15T00:06:03.627Z,13.80
2022-09-15T00:07:03.615Z,13.71
2022-09-15T00:08:03.615Z,13.68
2022-09-15T00:09:03.615Z,13.68
2022-09-15T00:10:03.599Z,13.65
2022-09-15T00:11:03.581Z,13.66
2022-09-15T00:12:03.601Z,13.59
2022-09-15T00:13:03.548Z,13.63
2022-09-15T00:14:03.593Z,13.62
2022-09-15T00:15:03.676Z,13.65
2022-09-15T00:16:03.508Z,13.46
2022-09-15T00:17:03.566Z,13.44
2022-09-15T00:18:03.549Z,13.36
2022-09-15T00:19:03.969Z,13.53
2022-09-15T00:20:03.468Z,13.50
2022-09-15T00:21:03.544Z,13.53
2022-09-15T00:22:03.480Z,13.48
2022-09-15T00:23:03.452Z,13.59
2022-09-15T00:24:03.428Z,13.62
2022-09-15T00:25:03.400Z,13.50
2022-09-15T00:26:03.412Z,13.48
2022-09-15T00:27:03.409Z,13.44
2022-09-15T00:28:03.389Z,13.55
2022-09-15T00:29:03.373Z,13.48
2022-09-15T00:30:03.580Z,13.35
2022-09-15T00:31:03.524Z,13.47
2022-09-15T00:32:03.401Z,13.53
2022-09-15T00:33:03.826Z,13.47
2022-09-15T00:34:03.295Z,13.48
2022-09-15T00:35:03.333Z,13.41
2022-09-15T00:36:03.308Z,13.41
2022-09-15T00:37:03.294Z,13.43
2022-09-15T00:38:03.269Z,13.36
2022-09-15T00:39:03.273Z,13.39
2022-09-15T00:40:03.332Z,13.41
2022-09-15T00:41:03.277Z,13.41
2022-09-15T00:42:03.234Z,13.44
2022-09-15T00:43:03.217Z,13.32
2022-09-15T00:44:03.198Z,13.24
2022-09-15T00:45:03.204Z,13.19
2022-09-15T00:46:03.191Z,13.07
2022-09-15T00:47:18.844Z,13.01
2022-09-15T00:48:05.130Z,12.98
2022-09-15T00:49:03.157Z,12.94
2022-09-15T00:50:03.110Z,12.88
2022-09-15T00:51:03.161Z,12.98
2022-09-15T00:52:03.120Z,13.07
2022-09-15T00:53:03.117Z,13.04
2022-09-15T00:54:03.074Z,12.99
2022-09-15T00:55:03.080Z,12.92
2022-09-15T00:56:03.067Z,12.92
2022-09-15T00:57:03.052Z,12.89
2022-09-15T00:58:03.025Z,12.88
2022-09-15T00:59:03.049Z,13.01
2022-09-15T01:00:03.055Z,12.99
2022-09-15T01:01:03.139Z,12.99
2022-09-15T01:02:03.081Z,13.04
2022-09-15T01:03:03.006Z,12.95
2022-09-15T01:04:03.026Z,12.91
2022-09-15T01:05:02.983Z,12.99
2022-09-15T01:06:02.912Z,12.95
2022-09-15T01:07:03.131Z,12.87
2022-09-15T01:08:02.907Z,12.92
2022-09-15T01:09:02.943Z,12.98
2022-09-15T01:10:02.872Z,13.06
2022-09-15T01:11:02.884Z,13.12
2022-09-15T01:12:02.954Z,13.12
2022-09-15T01:13:02.858Z,13.07
2022-09-15T01:14:02.901Z,13.03
2022-09-15T01:15:02.854Z,12.98
2022-09-15T01:16:02.909Z,13.03
2022-09-15T01:17:02.973Z,13.09
2022-09-15T01:18:02.821Z,13.21
2022-09-15T01:19:02.887Z,13.12
2022-09-15T01:20:02.852Z,13.21
2022-09-15T01:21:02.803Z,13.17
2022-09-15T01:22:02.863Z,13.27
2022-09-15T01:23:02.874Z,13.19
2022-09-15T01:24:02.732Z,13.19
2022-09-15T01:25:02.759Z,13.04
2022-09-15T01:26:02.736Z,12.85
2022-09-15T01:27:13.842Z,12.88
2022-09-15T01:28:04.725Z,12.87
2022-09-15T01:29:02.727Z,12.87
2022-09-15T01:30:02.691Z,12.99
2022-09-15T01:31:02.719Z,12.91
2022-09-15T01:32:02.753Z,12.92
2022-09-15T01:33:02.749Z,12.94
2022-09-15T01:34:02.844Z,12.99
2022-09-15T01:35:02.675Z,13.04
2022-09-15T01:36:02.625Z,13.10
2022-09-15T01:37:02.607Z,13.03
2022-09-15T01:38:02.631Z,13.03
2022-09-15T01:39:02.596Z,13.03
2022-09-15T01:40:02.660Z,13.04
2022-09-15T01:41:02.548Z,12.92
2022-09-15T01:42:02.580Z,12.92
2022-09-15T01:43:02.547Z,13.06
2022-09-15T01:44:02.579Z,13.03
2022-09-15T01:45:02.531Z,12.96
2022-09-15T01:46:02.634Z,12.95
2022-09-15T01:47:02.653Z,13.03
2022-09-15T01:48:02.597Z,12.99
2022-09-15T01:49:02.528Z,13.07
2022-09-15T01:50:02.515Z,13.06
2022-09-15T01:51:02.450Z,13.17
2022-09-15T01:52:02.457Z,13.14
2022-09-15T01:53:02.496Z,13.12
2022-09-15T01:54:02.568Z,13.07
2022-09-15T01:55:02.448Z,12.99
2022-09-15T01:56:02.458Z,12.88
2022-09-15T01:57:02.432Z,12.85
2022-09-15T01:58:02.362Z,12.85
2022-09-15T01:59:02.332Z,12.81
2022-09-15T02:00:02.453Z,12.87
2022-09-15T02:01:02.451Z,12.88
2022-09-15T02:02:02.433Z,12.81
2022-09-15T02:03:02.341Z,12.94
2022-09-15T02:04:02.341Z,12.99
2022-09-15T02:05:02.294Z,13.01
2022-09-15T02:06:02.289Z,13.16
2022-09-15T02:07:02.288Z,13.06
2022-09-15T02:08:02.276Z,13.10
2022-09-15T02:09:02.273Z,13.09
2022-09-15T02:10:02.274Z,13.07
2022-09-15T02:11:02.205Z,12.96
2022-09-15T02:12:02.241Z,12.89
2022-09-15T02:13:02.229Z,12.77
2022-09-15T02:14:02.205Z,12.74
2022-09-15T02:15:02.177Z,12.77
2022-09-15T02:16:02.229Z,12.88
2022-09-15T02:17:02.219Z,12.81
2022-09-15T02:18:02.154Z,12.87
2022-09-15T02:19:02.171Z,12.96
2022-09-15T02:20:02.133Z,12.95
2022-09-15T02:21:02.133Z,12.92
2022-09-15T02:22:02.113Z,13.04
2022-09-15T02:23:02.166Z,13.14
2022-09-15T02:24:02.106Z,13.21
2022-09-15T02:25:02.066Z,13.31
2022-09-15T02:26:02.083Z,13.39
2022-09-15T02:27:02.076Z,13.35
2022-09-15T02:28:02.066Z,13.31
2022-09-15T02:29:02.030Z,13.36
2022-09-15T02:30:01.998Z,13.39
2022-09-15T02:31:02.059Z,13.48
2022-09-15T02:32:06.832Z,13.46
2022-09-15T02:33:03.981Z,13.46
2022-09-15T02:34:02.030Z,13.44
2022-09-15T02:35:02.005Z,13.41
2022-09-15T02:36:01.999Z,13.53
2022-09-15T02:37:02.056Z,13.38
2022-09-15T02:38:02.070Z,13.47
2022-09-15T02:39:02.219Z,13.50
2022-09-15T02:40:02.005Z,13.51
2022-09-15T02:41:01.942Z,13.48
2022-09-15T02:42:01.983Z,13.59
2022-09-15T02:43:02.053Z,13.62
2022-09-15T02:44:01.937Z,13.57
2022-09-15T02:45:01.900Z,13.63
2022-09-15T02:46:01.950Z,13.68
2022-09-15T02:47:01.847Z,13.68
2022-09-15T02:48:01.907Z,13.68
2022-09-15T02:49:01.806Z,13.54
2022-09-15T02:50:01.847Z,13.65
2022-09-15T02:51:01.850Z,13.68
2022-09-15T02:52:01.864Z,13.71
2022-09-15T02:53:01.830Z,13.65
2022-09-15T02:54:01.748Z,13.68
2022-09-15T02:55:01.780Z,13.62
2022-09-15T02:56:01.884Z,13.68
2022-09-15T02:57:01.820Z,13.79
2022-09-15T02:58:01.812Z,13.73
2022-09-15T02:59:01.771Z,13.84
2022-09-15T03:00:01.813Z,13.80
2022-09-15T03:01:01.783Z,13.73
2022-09-15T03:02:01.730Z,13.81
2022-09-15T03:03:01.700Z,13.81
2022-09-15T03:04:01.766Z,13.76
2022-09-15T03:05:01.665Z,13.75
2022-09-15T03:06:01.649Z,13.86
2022-09-15T03:07:01.753Z,13.76
2022-09-15T03:08:01.690Z,13.76
2022-09-15T03:09:01.709Z,13.84
2022-09-15T03:10:02.429Z,13.83
2022-09-15T03:11:01.678Z,13.84
2022-09-15T03:12:01.697Z,13.80
2022-09-15T03:13:01.622Z,13.90
2022-09-15T03:14:01.598Z,13.80
2022-09-15T03:15:01.615Z,13.72
2022-09-15T03:16:01.535Z,13.88
2022-09-15T03:17:01.553Z,13.86
2022-09-15T03:18:01.580Z,13.90
2022-09-15T03:19:01.546Z,13.79
2022-09-15T03:20:01.624Z,13.72
2022-09-15T03:21:01.529Z,13.63
2022-09-15T03:22:01.470Z,13.71
2022-09-15T03:23:01.483Z,13.68
2022-09-15T03:24:01.533Z,13.69
2022-09-15T03:25:01.511Z,13.73
2022-09-15T03:26:01.442Z,13.75
2022-09-15T03:27:01.474Z,13.75
2022-09-15T03:28:01.530Z,13.69
2022-09-15T03:29:01.391Z,13.71
2022-09-15T03:30:01.426Z,13.65
2022-09-15T03:31:01.403Z,13.73
2022-09-15T03:32:01.389Z,13.69
2022-09-15T03:33:01.318Z,13.71
2022-09-15T03:34:01.326Z,13.73
2022-09-15T03:35:01.436Z,13.79
2022-09-15T03:36:01.310Z,13.73
2022-09-15T03:37:01.322Z,13.76
2022-09-15T03:38:01.259Z,13.83
2022-09-15T03:39:01.315Z,13.81
2022-09-15T03:40:01.374Z,13.87
2022-09-15T03:41:01.289Z,13.83
2022-09-15T03:42:01.230Z,13.81
2022-09-15T03:43:01.241Z,13.76
2022-09-15T03:44:01.194Z,13.88
2022-09-15T03:45:01.227Z,13.76
2022-09-15T03:46:01.376Z,13.79
2022-09-15T03:47:01.215Z,13.69
2022-09-15T03:48:01.157Z,13.72
2022-09-15T03:49:01.156Z,13.55
2022-09-15T03:50:02.123Z,13.44
2022-09-15T03:51:01.164Z,13.25
2022-09-15T03:52:01.124Z,13.17
2022-09-15T03:53:01.168Z,13.07
2022-09-15T03:54:01.131Z,13.03
2022-09-15T03:55:01.084Z,12.92
2022-09-15T03:56:01.196Z,13.06
2022-09-15T03:57:01.087Z,12.88
2022-09-15T03:58:01.051Z,12.98
2022-09-15T03:59:01.024Z,12.98
2022-09-15T04:00:01.168Z,13.03
2022-09-15T04:01:01.110Z,13.01
2022-09-15T04:02:01.042Z,12.94
2022-09-15T04:03:01.056Z,12.94
2022-09-15T04:04:01.016Z,12.87
2022-09-15T04:05:00.954Z,12.85
2022-09-15T04:06:00.998Z,12.80
2022-09-15T04:07:00.980Z,12.88
2022-09-15T04:08:00.937Z,12.92
2022-09-15T04:09:00.944Z,12.77
2022-09-15T04:10:00.905Z,12.66
2022-09-15T04:11:00.972Z,12.67
2022-09-15T04:12:00.972Z,12.66
2022-09-15T04:13:00.905Z,12.71
2022-09-15T04:14:00.920Z,12.66
2022-09-15T04:15:00.888Z,12.69
2022-09-15T04:16:00.955Z,12.80
2022-09-15T04:17:00.862Z,12.80
2022-09-15T04:18:00.889Z,12.94
2022-09-15T04:19:00.829Z,12.96
2022-09-15T04:20:00.816Z,12.92
2022-09-15T04:21:00.817Z,12.94
2022-09-15T04:22:00.817Z,12.95
2022-09-15T04:23:00.813Z,12.98
2022-09-15T04:24:00.770Z,12.98
2022-09-15T04:25:00.777Z,12.98
2022-09-15T04:26:00.754Z,13.06
2022-09-15T04:27:00.760Z,12.94
2022-09-15T04:28:00.758Z,13.10
2022-09-15T04:29:04.199Z,13.04
2022-09-15T04:30:00.697Z,13.12
2022-09-15T04:31:00.724Z,13.16
2022-09-15T04:32:00.717Z,13.04
2022-09-15T04:33:00.717Z,13.03
2022-09-15T04:34:00.662Z,13.09
2022-09-15T04:35:00.841Z,13.07
2022-09-15T04:36:00.669Z,13.09
2022-09-15T04:37:00.631Z,13.03
2022-09-15T04:38:00.650Z,13.13
2022-09-15T04:39:00.613Z,13.12
2022-09-15T04:40:00.648Z,13.19
2022-09-15T04:41:00.629Z,13.28
2022-09-15T04:42:00.577Z,13.17
2022-09-15T04:43:00.545Z,13.14
2022-09-15T04:44:00.549Z,12.99
2022-09-15T04:45:00.553Z,12.95
2022-09-15T04:46:00.521Z,13.07
2022-09-15T04:47:00.666Z,13.10
2022-09-15T04:48:00.506Z,13.14
2022-09-15T04:49:00.562Z,13.12
2022-09-15T04:50:00.496Z,13.19
2022-09-15T04:51:00.505Z,13.24
2022-09-15T04:52:00.478Z,13.19
2022-09-15T04:53:00.529Z,13.25
2022-09-15T04:54:00.482Z,13.29
2022-09-15T04:55:00.437Z,13.24
2022-09-15T04:56:00.442Z,13.28
2022-09-15T04:57:00.398Z,13.31
2022-09-15T04:58:00.388Z,13.29
2022-09-15T04:59:03.785Z,13.21
2022-09-15T05:00:01.472Z,13.16
2022-09-15T05:01:00.467Z,13.19
2022-09-15T05:02:00.421Z,13.25
2022-09-15T05:03:00.332Z,13.22
2022-09-15T05:04:00.329Z,13.28
2022-09-15T05:05:00.313Z,13.27
2022-09-15T05:06:00.321Z,13.25
2022-09-15T05:07:00.299Z,13.31
2022-09-15T05:08:00.297Z,13.22
2022-09-15T05:09:00.331Z,13.17
2022-09-15T05:10:00.294Z,13.01
2022-09-15T05:11:00.251Z,13.03
2022-09-15T05:12:00.283Z,12.89
2022-09-15T05:13:00.258Z,12.98
2022-09-15T05:14:00.228Z,12.89
2022-09-15T05:15:00.242Z,12.91
2022-09-15T05:16:00.284Z,12.79
2022-09-15T05:17:00.209Z,13.01
2022-09-15T05:18:00.164Z,12.85
2022-09-15T05:19:00.191Z,12.89
2022-09-15T05:20:00.178Z,12.73
2022-09-15T05:21:00.154Z,12.80
2022-09-15T05:22:00.149Z,12.81
2022-09-15T05:23:00.151Z,12.91
2022-09-15T05:24:00.129Z,13.07
2022-09-15T05:25:00.138Z,13.03
2022-09-15T05:26:00.134Z,13.09
2022-09-15T05:27:00.097Z,12.94
2022-09-15T05:28:00.075Z,12.85
2022-09-15T05:29:00.033Z,12.85
2022-09-15T05:30:23.626Z,12.84
2022-09-15T05:31:02.102Z,12.62
2022-09-15T05:32:00.115Z,12.73
2022-09-15T05:33:00.029Z,12.89
2022-09-15T05:33:59.992Z,12.89
2022-09-15T05:35:00.022Z,12.94
2022-09-15T05:35:59.992Z,13.07
2022-09-15T05:36:59.940Z,12.99
2022-09-15T05:37:59.931Z,13.14
2022-09-15T05:38:59.927Z,13.17
2022-09-15T05:39:59.973Z,13.16
2022-09-15T05:40:59.966Z,13.17
2022-09-15T05:42:00.015Z,13.19
2022-09-15T05:42:59.881Z,13.17
2022-09-15T05:43:59.901Z,13.10
2022-09-15T05:44:59.927Z,13.03
2022-09-15T05:45:59.839Z,13.03
2022-09-15T05:46:59.935Z,12.89
2022-09-15T05:47:59.871Z,12.98
2022-09-15T05:48:59.811Z,12.94
2022-09-15T05:49:59.832Z,12.96
2022-09-15T05:50:59.817Z,12.84
2022-09-15T05:51:59.932Z,12.88
2022-09-15T05:52:59.776Z,12.80
2022-09-15T05:53:59.797Z,12.89
2022-09-15T05:54:59.759Z,12.84
2022-09-15T05:55:59.829Z,12.99
2022-09-15T05:56:59.770Z,12.85
2022-09-15T05:57:59.734Z,12.85
2022-09-15T05:58:59.746Z,12.81
2022-09-15T05:59:59.718Z,12.80
2022-09-15T06:00:59.699Z,12.74
2022-09-15T06:01:59.795Z,12.80
2022-09-15T06:02:59.719Z,12.87
2022-09-15T06:03:59.667Z,12.66
2022-09-15T06:04:59.659Z,12.74
2022-09-15T06:05:59.693Z,12.70
2022-09-15T06:06:59.634Z,12.76
2022-09-15T06:07:59.623Z,12.77
2022-09-15T06:08:59.794Z,12.87
2022-09-15T06:09:59.611Z,12.89
2022-09-15T06:10:59.604Z,12.84
2022-09-15T06:11:59.577Z,12.89
2022-09-15T06:12:59.559Z,13.03
2022-09-15T06:13:59.540Z,12.89
2022-09-15T06:14:59.525Z,12.81
2022-09-15T06:15:59.596Z,12.98
2022-09-15T06:16:59.549Z,12.92
2022-09-15T06:17:59.536Z,12.87
2022-09-15T06:18:59.516Z,13.03
2022-09-15T06:19:59.484Z,13.04
2022-09-15T06:20:59.464Z,12.99
2022-09-15T06:21:59.485Z,12.96
2022-09-15T06:22:59.574Z,12.94
2022-09-15T06:23:59.462Z,13.01
2022-09-15T06:24:59.431Z,13.03
2022-09-15T06:25:59.414Z,13.07
2022-09-15T06:26:59.398Z,13.22
2022-09-15T06:27:59.471Z,13.36
2022-09-15T06:28:59.429Z,13.47
2022-09-15T06:29:59.366Z,13.39
2022-09-15T06:30:59.374Z,13.57
2022-09-15T06:31:59.406Z,13.32
2022-09-15T06:32:59.358Z,13.51
2022-09-15T06:33:59.369Z,13.47
2022-09-15T06:35:00.214Z,13.47
2022-09-15T06:35:59.305Z,13.59
2022-09-15T06:36:59.306Z,13.69
2022-09-15T06:37:59.294Z,13.73
2022-09-15T06:38:59.294Z,13.83
2022-09-15T06:39:59.359Z,13.93
2022-09-15T06:40:59.293Z,13.96
2022-09-15T06:42:02.889Z,13.94
2022-09-15T06:43:00.260Z,13.94
2022-09-15T06:43:59.223Z,13.90
2022-09-15T06:44:59.222Z,13.93
2022-09-15T06:45:59.289Z,13.88
2022-09-15T06:46:59.214Z,13.69
2022-09-15T06:48:22.847Z,13.79
2022-09-15T06:49:00.173Z,13.84
2022-09-15T06:49:59.185Z,13.93
2022-09-15T06:50:59.154Z,14.02
2022-09-15T06:51:59.137Z,14.02
2022-09-15T06:52:59.109Z,14.01
2022-09-15T06:53:59.151Z,13.99
2022-09-15T06:54:59.134Z,14.01
2022-09-15T06:55:59.078Z,14.08
2022-09-15T06:56:59.069Z,14.08
2022-09-15T06:57:59.056Z,14.19
2022-09-15T06:58:59.030Z,14.23
2022-09-15T06:59:59.041Z,14.16
2022-09-15T07:00:59.039Z,14.27
2022-09-15T07:02:04.113Z,14.24
2022-09-15T07:03:01.094Z,14.20
2022-09-15T07:03:58.996Z,14.26
2022-09-15T07:04:58.995Z,14.24
2022-09-15T07:05:59.008Z,14.17
2022-09-15T07:06:58.975Z,14.21
2022-09-15T07:07:58.951Z,14.29
2022-09-15T07:08:58.911Z,14.27
2022-09-15T07:09:58.968Z,14.29
2022-09-15T07:10:58.918Z,14.21
2022-09-15T07:11:58.878Z,14.20
2022-09-15T07:12:59.889Z,14.13
2022-09-15T07:13:58.908Z,14.21
2022-09-15T07:14:58.890Z,14.24
2022-09-15T07:15:58.922Z,14.27
2022-09-15T07:16:58.845Z,14.13
2022-09-15T07:17:58.807Z,14.20
2022-09-15T07:18:58.801Z,14.36
2022-09-15T07:19:58.797Z,14.36
2022-09-15T07:20:58.790Z,14.53
2022-09-15T07:21:58.777Z,14.53
2022-09-15T07:22:58.775Z,14.59
2022-09-15T07:24:00.704Z,14.64
2022-09-15T07:24:59.761Z,14.63
2022-09-15T07:25:58.745Z,14.63
2022-09-15T07:26:58.731Z,14.66
2022-09-15T07:27:58.710Z,14.63
2022-09-15T07:28:58.686Z,14.64
2022-09-15T07:29:58.680Z,14.67
2022-09-15T07:30:58.675Z,14.72
2022-09-15T07:31:58.725Z,14.80
2022-09-15T07:32:58.674Z,14.72
2022-09-15T07:33:58.626Z,14.71
2022-09-15T07:34:58.691Z,14.63
2022-09-15T07:35:58.633Z,14.67
2022-09-15T07:36:58.623Z,14.85
2022-09-15T07:37:58.580Z,14.93
2022-09-15T07:38:58.620Z,14.97
2022-09-15T07:39:58.626Z,15.09
2022-09-15T07:40:58.537Z,15.16
2022-09-15T07:41:58.577Z,15.19
2022-09-15T07:42:58.525Z,15.35
2022-09-15T07:43:58.518Z,15.34
2022-09-15T07:44:58.510Z,15.40
2022-09-15T07:45:58.557Z,15.40
2022-09-15T07:46:58.490Z,15.37
2022-09-15T07:47:58.476Z,15.27
2022-09-15T07:48:58.464Z,15.37
2022-09-15T07:49:58.479Z,15.43
2022-09-15T07:50:58.462Z,15.34
2022-09-15T07:51:58.442Z,15.28
2022-09-15T07:52:58.426Z,15.35
2022-09-15T07:53:58.419Z,15.22
2022-09-15T07:54:58.393Z,15.30
2022-09-15T07:55:58.367Z,15.35
2022-09-15T07:56:58.415Z,15.41
2022-09-15T07:57:58.398Z,15.51
2022-09-15T07:58:58.342Z,15.35
2022-09-15T07:59:58.351Z,15.25
2022-09-15T08:00:58.380Z,15.23
2022-09-15T08:01:58.401Z,15.22
2022-09-15T08:02:58.297Z,15.07
2022-09-15T08:03:58.306Z,15.04
2022-09-15T08:04:58.298Z,15.03
2022-09-15T08:05:58.267Z,14.98
2022-09-15T08:06:58.277Z,15.01
2022-09-15T08:07:59.790Z,14.93
2022-09-15T08:09:00.759Z,14.86
2022-09-15T08:09:58.247Z,14.94
2022-09-15T08:10:58.230Z,14.87
2022-09-15T08:11:58.231Z,14.94
2022-09-15T08:12:58.183Z,14.94
2022-09-15T08:13:58.171Z,14.87
2022-09-15T08:14:58.187Z,14.87
2022-09-15T08:15:58.199Z,14.91
2022-09-15T08:16:58.155Z,14.91
2022-09-15T08:17:58.119Z,14.90
2022-09-15T08:18:58.308Z,14.86
2022-09-15T08:19:58.109Z,14.83
2022-09-15T08:20:58.688Z,15.03
2022-09-15T08:21:58.127Z,14.91
2022-09-15T08:22:58.127Z,14.82
2022-09-15T08:23:58.059Z,14.91
2022-09-15T08:24:58.856Z,14.90
2022-09-15T08:25:58.048Z,14.97
2022-09-15T08:26:58.835Z,14.95
2022-09-15T08:27:58.031Z,14.93
2022-09-15T08:28:58.008Z,14.94
2022-09-15T08:29:58.012Z,14.95
2022-09-15T08:30:58.017Z,14.93
2022-09-15T08:31:57.948Z,14.91
2022-09-15T08:32:57.939Z,14.97
2022-09-15T08:33:57.994Z,15.04
2022-09-15T08:34:58.008Z,15.13
2022-09-15T08:35:57.909Z,15.04
2022-09-15T08:36:57.920Z,15.16
2022-09-15T08:37:57.892Z,15.30
2022-09-15T08:38:57.909Z,15.40
2022-09-15T08:39:57.911Z,15.46
2022-09-15T08:40:57.841Z,15.49
2022-09-15T08:41:57.848Z,15.58
2022-09-15T08:42:57.836Z,15.51
2022-09-15T08:43:57.840Z,15.60
2022-09-15T08:44:57.889Z,15.56
2022-09-15T08:45:57.788Z,15.59
2022-09-15T08:46:57.825Z,15.58
2022-09-15T08:47:57.785Z,15.59
2022-09-15T08:49:02.045Z,15.48
2022-09-15T08:49:59.749Z,15.49
2022-09-15T08:50:57.737Z,15.53
2022-09-15T08:51:57.848Z,15.48
2022-09-15T08:52:57.718Z,15.51
2022-09-15T08:53:57.738Z,15.40
2022-09-15T08:54:57.855Z,15.40
2022-09-15T08:55:57.681Z,15.40
2022-09-15T08:57:00.224Z,15.23
2022-09-15T08:57:59.119Z,15.23
2022-09-15T08:58:57.612Z,15.20
2022-09-15T08:59:57.621Z,15.11
2022-09-15T09:00:57.650Z,15.04
2022-09-15T09:01:57.676Z,15.01
2022-09-15T09:02:57.682Z,15.05
2022-09-15T09:03:57.565Z,15.11
2022-09-15T09:04:57.690Z,15.01
2022-09-15T09:05:57.562Z,15.01
2022-09-15T09:06:57.546Z,15.05
2022-09-15T09:07:57.538Z,15.04
2022-09-15T09:08:58.202Z,15.09
2022-09-15T09:09:57.514Z,15.04
2022-09-15T09:10:57.562Z,15.03
2022-09-15T09:11:57.495Z,15.07
2022-09-15T09:12:57.460Z,15.03
2022-09-15T09:13:57.489Z,14.98
2022-09-15T09:14:58.312Z,14.95
2022-09-15T09:15:57.556Z,15.07
2022-09-15T09:16:57.500Z,15.09
2022-09-15T09:17:57.430Z,15.11
2022-09-15T09:18:57.461Z,15.05
2022-09-15T09:19:57.395Z,15.07
2022-09-15T09:20:57.395Z,15.13
2022-09-15T09:21:57.464Z,15.15
2022-09-15T09:22:57.348Z,15.16
2022-09-15T09:23:57.365Z,15.27
2022-09-15T09:24:57.318Z,15.25
2022-09-15T09:25:57.318Z,15.34
2022-09-15T09:26:57.312Z,15.35
2022-09-15T09:27:57.279Z,15.40
2022-09-15T09:28:57.302Z,15.43
2022-09-15T09:29:57.332Z,15.43
2022-09-15T09:30:57.350Z,15.38
2022-09-15T09:31:57.228Z,15.46
2022-09-15T09:32:57.312Z,15.48
2022-09-15T09:33:57.250Z,15.44
2022-09-15T09:34:57.264Z,15.52
2022-09-15T09:35:57.201Z,15.56
2022-09-15T09:36:57.203Z,15.52
2022-09-15T09:37:57.197Z,15.58
2022-09-15T09:38:57.160Z,15.59
2022-09-15T09:39:57.168Z,15.66
2022-09-15T09:41:01.879Z,15.68
2022-09-15T09:41:59.172Z,15.68
2022-09-15T09:42:57.140Z,15.73
2022-09-15T09:43:57.095Z,15.74
2022-09-15T09:44:57.120Z,15.70
2022-09-15T09:45:57.207Z,15.68
2022-09-15T09:46:57.106Z,15.62
2022-09-15T09:48:00.894Z,15.91
2022-09-15T09:48:58.136Z,16.01
2022-09-15T09:49:57.002Z,15.88
2022-09-15T09:50:57.012Z,15.89
2022-09-15T09:51:56.988Z,15.99
2022-09-15T09:52:57.004Z,15.99
2022-09-15T09:53:56.996Z,16.06
2022-09-15T09:54:57.013Z,15.95
2022-09-15T09:55:56.969Z,16.06
2022-09-15T09:56:57.026Z,16.06
2022-09-15T09:57:57.174Z,16.03
2022-09-15T09:58:56.909Z,15.98
2022-09-15T09:59:56.914Z,15.98
2022-09-15T10:00:56.897Z,16.04
2022-09-15T10:01:57.678Z,16.07
2022-09-15T10:02:56.885Z,16.14
2022-09-15T10:03:56.869Z,16.16
2022-09-15T10:04:58.055Z,16.11
2022-09-15T10:05:56.885Z,16.17
2022-09-15T10:06:56.797Z,16.17
2022-09-15T10:07:56.813Z,16.11
2022-09-15T10:08:56.806Z,16.10
2022-09-15T10:09:56.804Z,15.99
2022-09-15T10:10:56.782Z,16.08
2022-09-15T10:11:56.817Z,16.11
2022-09-15T10:12:56.767Z,16.03
2022-09-15T10:13:56.768Z,16.08
2022-09-15T10:14:56.954Z,16.18
2022-09-15T10:15:56.665Z,16.16
2022-09-15T10:16:56.776Z,16.13
2022-09-15T10:17:56.690Z,16.26
2022-09-15T10:18:56.718Z,16.22
2022-09-15T10:19:56.666Z,16.18
2022-09-15T10:20:56.645Z,16.13
2022-09-15T10:21:57.271Z,16.25
2022-09-15T10:22:56.695Z,16.25
2022-09-15T10:23:56.658Z,16.47
2022-09-15T10:24:56.930Z,16.52
2022-09-15T10:25:59.538Z,16.70
2022-09-15T10:26:57.617Z,16.82
2022-09-15T10:27:56.587Z,16.88
2022-09-15T10:28:56.713Z,16.84
2022-09-15T10:29:56.696Z,16.92
2022-09-15T10:30:56.550Z,16.85
2022-09-15T10:31:57.319Z,16.90
2022-09-15T10:32:56.518Z,16.90
2022-09-15T10:33:56.533Z,16.90
2022-09-15T10:34:56.482Z,16.98
2022-09-15T10:35:56.585Z,16.95
2022-09-15T10:36:56.506Z,16.80
2022-09-15T10:37:56.453Z,16.82
2022-09-15T10:38:56.484Z,16.78
2022-09-15T10:39:56.532Z,16.87
2022-09-15T10:40:56.538Z,16.90
2022-09-15T10:41:56.448Z,16.99
2022-09-15T10:42:56.453Z,16.92
2022-09-15T10:43:56.388Z,17.00
2022-09-15T10:44:56.396Z,16.92
2022-09-15T10:45:56.729Z,16.95
2022-09-15T10:46:56.440Z,16.90
2022-09-15T10:47:56.368Z,16.81
2022-09-15T10:48:57.393Z,16.92
2022-09-15T10:49:56.424Z,16.96
2022-09-15T10:50:56.324Z,16.98
2022-09-15T10:51:56.356Z,16.90
2022-09-15T10:52:56.316Z,16.87
2022-09-15T10:53:57.638Z,16.72
2022-09-15T10:54:57.344Z,16.69
2022-09-15T10:55:56.265Z,16.81
2022-09-15T10:56:56.344Z,16.82
2022-09-15T10:57:56.286Z,16.88
2022-09-15T10:58:57.112Z,16.95
2022-09-15T10:59:56.411Z,17.07
2022-09-15T11:00:56.305Z,17.07
2022-09-15T11:01:56.265Z,17.21
2022-09-15T11:02:56.196Z,17.22
2022-09-15T11:03:56.155Z,17.24
2022-09-15T11:04:56.184Z,17.12
2022-09-15T11:05:56.138Z,16.99
2022-09-15T11:06:56.189Z,17.17
2022-09-15T11:07:56.189Z,17.30
2022-09-15T11:08:56.157Z,17.53
2022-09-15T11:09:56.073Z,17.60
2022-09-15T11:10:56.083Z,17.81
2022-09-15T11:11:56.090Z,17.98
2022-09-15T11:12:58.576Z,17.95
2022-09-15T11:13:56.094Z,18.05
2022-09-15T11:14:56.119Z,18.05
2022-09-15T11:15:56.147Z,18.10
2022-09-15T11:16:56.705Z,18.21
2022-09-15T11:17:56.008Z,18.41
2022-09-15T11:18:56.068Z,18.68
2022-09-15T11:19:56.013Z,18.94
2022-09-15T11:20:55.991Z,19.07
2022-09-15T11:21:56.363Z,18.94
2022-09-15T11:22:56.016Z,19.09
2022-09-15T11:23:55.964Z,19.12
2022-09-15T11:24:55.932Z,19.07
2022-09-15T11:25:55.992Z,19.27
2022-09-15T11:26:55.934Z,19.07
2022-09-15T11:27:55.985Z,19.10
2022-09-15T11:28:55.923Z,19.12
2022-09-15T11:29:55.880Z,18.97
2022-09-15T11:30:56.731Z,18.83
2022-09-15T11:31:56.070Z,18.60
2022-09-15T11:32:57.990Z,18.49
2022-09-15T11:33:55.856Z,18.25
2022-09-15T11:34:55.804Z,18.32
2022-09-15T11:35:55.808Z,18.16
2022-09-15T11:36:55.808Z,17.86
2022-09-15T11:37:56.000Z,17.81
2022-09-15T11:38:55.792Z,17.73
2022-09-15T11:39:55.876Z,17.81
2022-09-15T11:40:55.831Z,17.96
2022-09-15T11:41:55.742Z,18.11
2022-09-15T11:42:55.749Z,17.98
2022-09-15T11:43:55.716Z,17.87
2022-09-15T11:44:55.735Z,17.65
2022-09-15T11:45:55.770Z,17.49
2022-09-15T11:46:55.854Z,17.42
2022-09-15T11:47:56.871Z,17.36
2022-09-15T11:48:55.726Z,17.39
2022-09-15T11:49:55.706Z,17.46
2022-09-15T11:50:55.693Z,17.60
2022-09-15T11:51:55.652Z,17.49
2022-09-15T11:52:55.680Z,17.51
2022-09-15T11:53:55.678Z,17.45
2022-09-15T11:54:55.621Z,17.47
2022-09-15T11:55:55.749Z,17.36
2022-09-15T11:56:55.623Z,17.30
2022-09-15T11:57:55.651Z,17.25
2022-09-15T11:58:55.815Z,17.27
2022-09-15T11:59:55.554Z,17.32
2022-09-15T12:00:55.581Z,17.21
2022-09-15T12:01:55.605Z,17.20
2022-09-15T12:02:55.566Z,17.03
2022-09-15T12:03:55.566Z,17.07
2022-09-15T12:04:55.537Z,17.02
2022-09-15T12:05:56.221Z,16.92
2022-09-15T12:06:55.537Z,16.91
2022-09-15T12:07:56.393Z,16.85
2022-09-15T12:08:55.435Z,16.80
2022-09-15T12:09:55.446Z,16.84
2022-09-15T12:10:55.444Z,16.82
2022-09-15T12:11:55.395Z,16.72
2022-09-15T12:12:55.445Z,16.69
2022-09-15T12:13:55.403Z,16.62
2022-09-15T12:14:55.606Z,16.65
2022-09-15T12:15:55.409Z,16.70
2022-09-15T12:16:55.373Z,16.70
2022-09-15T12:17:55.480Z,16.69
2022-09-15T12:18:55.344Z,16.75
2022-09-15T12:19:55.362Z,16.81
2022-09-15T12:20:55.300Z,16.88
2022-09-15T12:21:55.336Z,16.87
2022-09-15T12:22:55.397Z,16.98
2022-09-15T12:23:55.405Z,16.98
2022-09-15T12:24:58.871Z,17.00
2022-09-15T12:25:57.299Z,17.05
2022-09-15T12:26:55.293Z,17.05
2022-09-15T12:27:55.250Z,17.02
2022-09-15T12:28:55.351Z,17.15
2022-09-15T12:29:55.786Z,17.20
2022-09-15T12:30:55.239Z,17.21
2022-09-15T12:31:55.203Z,17.18
2022-09-15T12:32:55.916Z,17.14
2022-09-15T12:33:55.210Z,17.25
2022-09-15T12:34:55.848Z,17.25
2022-09-15T12:35:55.176Z,17.22
2022-09-15T12:36:55.201Z,17.12
2022-09-15T12:37:55.152Z,17.24
2022-09-15T12:38:55.288Z,17.18
2022-09-15T12:39:55.267Z,17.24
2022-09-15T12:40:55.116Z,17.14
2022-09-15T12:41:55.179Z,17.12
2022-09-15T12:42:55.080Z,16.98
2022-09-15T12:43:56.077Z,16.99
2022-09-15T12:44:56.125Z,17.03
2022-09-15T12:45:55.015Z,17.07
2022-09-15T12:46:55.207Z,16.99
2022-09-15T12:47:55.018Z,16.98
2022-09-15T12:48:55.041Z,16.92
2022-09-15T12:49:55.825Z,17.06
2022-09-15T12:50:55.005Z,17.12
2022-09-15T12:51:55.608Z,17.12